sensor_id;sensor_type;location;lat;lon;timestamp;P1;durP1;ratioP1;P2;durP2;ratioP2
7003;SDS011;3542;48.812;9.146;2022-07-23T00:00:51;6.10;;;5.40;;
7003;SDS011;3542;48.812;9.146;2022-07-23T00:03:16;6.10;;;5.60;;
7003;SDS011;3542;48.812;9.146;2022-07-23T00:05:42;5.27;;;4.97;;
7003;SDS011;3542;48.812;9.146;2022-07-23T00:08:07;5.30;;;4.90;;
7003;SDS011;3542;48.812;9.146;2022-07-23T00:10:34;5.40;;;5.00;;
7003;SDS011;3542;48.812;9.146;2022-07-23T00:12:59;5.70;;;5.30;;
7003;SDS011;3542;48.812;9.146;2022-07-23T00:15:25;5.17;;;4.80;;
7003;SDS011;3542;48.812;9.146;2022-07-23T00:17:50;5.73;;;5.10;;
7003;SDS011;3542;48.812;9.146;2022-07-23T00:20:16;5.43;;;5.03;;
7003;SDS011;3542;48.812;9.146;2022-07-23T00:22:52;5.73;;;5.00;;
7003;SDS011;3542;48.812;9.146;2022-07-23T00:25:19;4.50;;;4.20;;
7003;SDS011;3542;48.812;9.146;2022-07-23T00:27:46;6.23;;;5.17;;
7003;SDS011;3542;48.812;9.146;2022-07-23T00:30:11;5.80;;;5.20;;
7003;SDS011;3542;48.812;9.146;2022-07-23T00:32:48;5.33;;;4.77;;
7003;SDS011;3542;48.812;9.146;2022-07-23T00:35:16;5.23;;;4.80;;
7003;SDS011;3542;48.812;9.146;2022-07-23T00:37:44;5.33;;;4.93;;
7003;SDS011;3542;48.812;9.146;2022-07-23T00:40:11;5.10;;;4.70;;
7003;SDS011;3542;48.812;9.146;2022-07-23T00:42:36;5.30;;;4.83;;
7003;SDS011;3542;48.812;9.146;2022-07-23T00:45:03;4.73;;;4.30;;
7003;SDS011;3542;48.812;9.146;2022-07-23T00:47:29;5.27;;;4.70;;
7003;SDS011;3542;48.812;9.146;2022-07-23T00:49:55;6.03;;;5.53;;
7003;SDS011;3542;48.812;9.146;2022-07-23T00:52:20;6.83;;;4.93;;
7003;SDS011;3542;48.812;9.146;2022-07-23T00:54:46;6.07;;;5.00;;
7003;SDS011;3542;48.812;9.146;2022-07-23T00:57:12;4.73;;;4.33;;
7003;SDS011;3542;48.812;9.146;2022-07-23T00:59:40;5.53;;;5.13;;
7003;SDS011;3542;48.812;9.146;2022-07-23T02:32:43;5.70;;;5.20;;
7003;SDS011;3542;48.812;9.146;2022-07-23T02:35:09;5.97;;;5.37;;
7003;SDS011;3542;48.812;9.146;2022-07-23T02:37:34;5.73;;;5.23;;
7003;SDS011;3542;48.812;9.146;2022-07-23T02:40:00;7.00;;;5.43;;
7003;SDS011;3542;48.812;9.146;2022-07-23T02:42:25;6.37;;;5.87;;
7003;SDS011;3542;48.812;9.146;2022-07-23T02:44:51;6.17;;;5.63;;
7003;SDS011;3542;48.812;9.146;2022-07-23T02:47:17;8.60;;;5.60;;
7003;SDS011;3542;48.812;9.146;2022-07-23T02:49:42;6.00;;;5.57;;
7003;SDS011;3542;48.812;9.146;2022-07-23T02:52:08;7.23;;;5.60;;
7003;SDS011;3542;48.812;9.146;2022-07-23T02:54:35;5.17;;;4.70;;
7003;SDS011;3542;48.812;9.146;2022-07-23T02:57:01;6.10;;;5.57;;
7003;SDS011;3542;48.812;9.146;2022-07-23T02:59:27;6.20;;;5.60;;
7003;SDS011;3542;48.812;9.146;2022-07-23T03:01:52;7.20;;;6.07;;
7003;SDS011;3542;48.812;9.146;2022-07-23T03:04:18;5.90;;;5.40;;
7003;SDS011;3542;48.812;9.146;2022-07-23T03:06:43;6.30;;;5.80;;
7003;SDS011;3542;48.812;9.146;2022-07-23T03:09:09;6.83;;;6.17;;
7003;SDS011;3542;48.812;9.146;2022-07-23T03:11:35;5.47;;;5.13;;
7003;SDS011;3542;48.812;9.146;2022-07-23T03:14:00;6.17;;;5.67;;
7003;SDS011;3542;48.812;9.146;2022-07-23T03:16:25;5.20;;;4.80;;
7003;SDS011;3542;48.812;9.146;2022-07-23T03:18:51;5.43;;;4.93;;
7003;SDS011;3542;48.812;9.146;2022-07-23T03:21:16;6.53;;;6.03;;
7003;SDS011;3542;48.812;9.146;2022-07-23T03:23:42;5.63;;;5.13;;
7003;SDS011;3542;48.812;9.146;2022-07-23T03:26:07;6.10;;;5.60;;
7003;SDS011;3542;48.812;9.146;2022-07-23T03:28:33;8.10;;;5.70;;
7003;SDS011;3542;48.812;9.146;2022-07-23T03:30:58;6.03;;;5.33;;
7003;SDS011;3542;48.812;9.146;2022-07-23T03:33:24;5.23;;;4.73;;
7003;SDS011;3542;48.812;9.146;2022-07-23T03:35:50;7.30;;;5.10;;
7003;SDS011;3542;48.812;9.146;2022-07-23T03:38:15;5.20;;;4.90;;
7003;SDS011;3542;48.812;9.146;2022-07-23T03:40:41;6.63;;;6.13;;
7003;SDS011;3542;48.812;9.146;2022-07-23T03:43:06;5.47;;;5.00;;
7003;SDS011;3542;48.812;9.146;2022-07-23T03:45:32;6.27;;;5.77;;
7003;SDS011;3542;48.812;9.146;2022-07-23T03:47:58;5.70;;;5.30;;
7003;SDS011;3542;48.812;9.146;2022-07-23T03:50:24;6.27;;;5.77;;
7003;SDS011;3542;48.812;9.146;2022-07-23T03:52:50;6.20;;;5.70;;
7003;SDS011;3542;48.812;9.146;2022-07-23T03:55:15;5.97;;;5.37;;
7003;SDS011;3542;48.812;9.146;2022-07-23T03:57:41;6.30;;;5.73;;
7003;SDS011;3542;48.812;9.146;2022-07-23T04:00:07;5.83;;;5.33;;
7003;SDS011;3542;48.812;9.146;2022-07-23T04:02:34;8.70;;;5.37;;
7003;SDS011;3542;48.812;9.146;2022-07-23T04:05:00;6.50;;;5.90;;
7003;SDS011;3542;48.812;9.146;2022-07-23T04:07:26;5.60;;;5.20;;
7003;SDS011;3542;48.812;9.146;2022-07-23T04:09:51;6.23;;;5.50;;
7003;SDS011;3542;48.812;9.146;2022-07-23T04:12:17;6.77;;;6.17;;
7003;SDS011;3542;48.812;9.146;2022-07-23T04:14:43;5.50;;;5.10;;
7003;SDS011;3542;48.812;9.146;2022-07-23T04:17:09;6.33;;;5.73;;
7003;SDS011;3542;48.812;9.146;2022-07-23T04:19:35;6.13;;;5.03;;
7003;SDS011;3542;48.812;9.146;2022-07-23T04:22:04;6.17;;;5.77;;
7003;SDS011;3542;48.812;9.146;2022-07-23T04:24:31;7.53;;;5.70;;
7003;SDS011;3542;48.812;9.146;2022-07-23T04:26:57;5.57;;;5.13;;
7003;SDS011;3542;48.812;9.146;2022-07-23T04:29:23;6.17;;;5.53;;
7003;SDS011;3542;48.812;9.146;2022-07-23T04:31:48;6.23;;;5.80;;
7003;SDS011;3542;48.812;9.146;2022-07-23T04:34:14;6.53;;;5.93;;
7003;SDS011;3542;48.812;9.146;2022-07-23T04:36:39;6.53;;;5.90;;
7003;SDS011;3542;48.812;9.146;2022-07-23T04:39:05;5.93;;;5.40;;
7003;SDS011;3542;48.812;9.146;2022-07-23T04:41:31;6.80;;;6.10;;
7003;SDS011;3542;48.812;9.146;2022-07-23T04:43:56;6.10;;;5.43;;
7003;SDS011;3542;48.812;9.146;2022-07-23T04:46:22;6.23;;;5.63;;
7003;SDS011;3542;48.812;9.146;2022-07-23T04:48:47;6.40;;;5.80;;
7003;SDS011;3542;48.812;9.146;2022-07-23T04:51:13;6.50;;;5.87;;
7003;SDS011;3542;48.812;9.146;2022-07-23T04:53:38;6.47;;;5.87;;
7003;SDS011;3542;48.812;9.146;2022-07-23T04:56:04;6.10;;;5.50;;
7003;SDS011;3542;48.812;9.146;2022-07-23T04:58:30;6.27;;;5.77;;
7003;SDS011;3542;48.812;9.146;2022-07-23T05:00:56;6.53;;;5.97;;
7003;SDS011;3542;48.812;9.146;2022-07-23T05:03:23;6.63;;;6.03;;
7003;SDS011;3542;48.812;9.146;2022-07-23T05:05:48;6.50;;;6.00;;
7003;SDS011;3542;48.812;9.146;2022-07-23T05:08:14;6.40;;;5.80;;
7003;SDS011;3542;48.812;9.146;2022-07-23T05:10:39;6.90;;;6.20;;
7003;SDS011;3542;48.812;9.146;2022-07-23T05:13:05;7.23;;;6.53;;
7003;SDS011;3542;48.812;9.146;2022-07-23T05:15:30;6.10;;;5.57;;
7003;SDS011;3542;48.812;9.146;2022-07-23T05:17:56;6.90;;;6.37;;
7003;SDS011;3542;48.812;9.146;2022-07-23T05:20:21;7.60;;;6.47;;
7003;SDS011;3542;48.812;9.146;2022-07-23T05:22:47;8.13;;;7.10;;
7003;SDS011;3542;48.812;9.146;2022-07-23T05:25:13;5.60;;;5.20;;
7003;SDS011;3542;48.812;9.146;2022-07-23T05:27:38;6.83;;;5.37;;
7003;SDS011;3542;48.812;9.146;2022-07-23T05:30:04;6.30;;;5.80;;
7003;SDS011;3542;48.812;9.146;2022-07-23T05:32:31;6.40;;;5.80;;
7003;SDS011;3542;48.812;9.146;2022-07-23T05:34:57;5.97;;;5.50;;
7003;SDS011;3542;48.812;9.146;2022-07-23T05:37:22;6.20;;;5.60;;
7003;SDS011;3542;48.812;9.146;2022-07-23T05:39:49;6.90;;;5.60;;
7003;SDS011;3542;48.812;9.146;2022-07-23T05:42:14;6.77;;;6.20;;
7003;SDS011;3542;48.812;9.146;2022-07-23T05:44:40;6.93;;;6.23;;
7003;SDS011;3542;48.812;9.146;2022-07-23T05:47:05;7.10;;;6.03;;
7003;SDS011;3542;48.812;9.146;2022-07-23T05:49:31;7.43;;;6.00;;
7003;SDS011;3542;48.812;9.146;2022-07-23T05:51:56;6.93;;;6.33;;
7003;SDS011;3542;48.812;9.146;2022-07-23T05:54:22;6.83;;;6.30;;
7003;SDS011;3542;48.812;9.146;2022-07-23T05:56:47;6.50;;;5.90;;
7003;SDS011;3542;48.812;9.146;2022-07-23T05:59:13;8.27;;;6.10;;
7003;SDS011;3542;48.812;9.146;2022-07-23T06:01:39;6.50;;;6.10;;
7003;SDS011;3542;48.812;9.146;2022-07-23T06:04:05;7.50;;;6.33;;
7003;SDS011;3542;48.812;9.146;2022-07-23T06:06:31;6.53;;;5.93;;
7003;SDS011;3542;48.812;9.146;2022-07-23T06:08:56;7.30;;;6.60;;
7003;SDS011;3542;48.812;9.146;2022-07-23T06:11:22;5.97;;;5.47;;
7003;SDS011;3542;48.812;9.146;2022-07-23T06:13:47;6.27;;;5.67;;
7003;SDS011;3542;48.812;9.146;2022-07-23T06:16:13;6.43;;;5.90;;
7003;SDS011;3542;48.812;9.146;2022-07-23T06:18:38;6.80;;;6.10;;
7003;SDS011;3542;48.812;9.146;2022-07-23T06:21:04;7.60;;;6.20;;
7003;SDS011;3542;48.812;9.146;2022-07-23T06:23:29;7.50;;;6.80;;
7003;SDS011;3542;48.812;9.146;2022-07-23T06:25:55;8.33;;;6.33;;
7003;SDS011;3542;48.812;9.146;2022-07-23T06:28:20;7.03;;;6.33;;
7003;SDS011;3542;48.812;9.146;2022-07-23T06:30:46;7.03;;;6.20;;
7003;SDS011;3542;48.812;9.146;2022-07-23T06:33:11;7.93;;;5.60;;
7003;SDS011;3542;48.812;9.146;2022-07-23T06:35:37;5.60;;;5.10;;
7003;SDS011;3542;48.812;9.146;2022-07-23T06:38:02;6.63;;;6.03;;
7003;SDS011;3542;48.812;9.146;2022-07-23T06:40:28;6.80;;;5.43;;
7003;SDS011;3542;48.812;9.146;2022-07-23T06:42:54;6.23;;;5.73;;
7003;SDS011;3542;48.812;9.146;2022-07-23T06:45:19;7.40;;;5.77;;
7003;SDS011;3542;48.812;9.146;2022-07-23T06:47:45;7.23;;;6.20;;
7003;SDS011;3542;48.812;9.146;2022-07-23T06:50:10;6.00;;;5.60;;
7003;SDS011;3542;48.812;9.146;2022-07-23T06:52:36;6.77;;;6.17;;
7003;SDS011;3542;48.812;9.146;2022-07-23T06:55:01;6.13;;;5.47;;
7003;SDS011;3542;48.812;9.146;2022-07-23T06:57:27;6.60;;;5.93;;
7003;SDS011;3542;48.812;9.146;2022-07-23T06:59:53;8.27;;;7.00;;
7003;SDS011;3542;48.812;9.146;2022-07-23T07:02:18;7.27;;;6.57;;
7003;SDS011;3542;48.812;9.146;2022-07-23T07:04:44;6.00;;;5.57;;
7003;SDS011;3542;48.812;9.146;2022-07-23T07:07:10;6.77;;;6.23;;
7003;SDS011;3542;48.812;9.146;2022-07-23T07:09:36;6.57;;;6.10;;
7003;SDS011;3542;48.812;9.146;2022-07-23T07:12:02;6.50;;;5.90;;
7003;SDS011;3542;48.812;9.146;2022-07-23T07:14:28;8.63;;;6.27;;
7003;SDS011;3542;48.812;9.146;2022-07-23T07:16:54;6.33;;;5.73;;
7003;SDS011;3542;48.812;9.146;2022-07-23T07:19:19;7.20;;;6.50;;
7003;SDS011;3542;48.812;9.146;2022-07-23T07:21:45;7.00;;;6.40;;
7003;SDS011;3542;48.812;9.146;2022-07-23T07:24:10;7.80;;;6.63;;
7003;SDS011;3542;48.812;9.146;2022-07-23T07:26:36;6.73;;;6.17;;
7003;SDS011;3542;48.812;9.146;2022-07-23T07:29:03;7.27;;;6.53;;
7003;SDS011;3542;48.812;9.146;2022-07-23T07:31:29;7.87;;;7.10;;
7003;SDS011;3542;48.812;9.146;2022-07-23T07:33:54;7.93;;;7.13;;
7003;SDS011;3542;48.812;9.146;2022-07-23T07:36:21;8.13;;;7.33;;
7003;SDS011;3542;48.812;9.146;2022-07-23T07:38:47;7.90;;;7.30;;
7003;SDS011;3542;48.812;9.146;2022-07-23T07:41:12;8.27;;;7.53;;
7003;SDS011;3542;48.812;9.146;2022-07-23T07:43:38;7.90;;;7.20;;
7003;SDS011;3542;48.812;9.146;2022-07-23T07:46:04;7.47;;;6.77;;
7003;SDS011;3542;48.812;9.146;2022-07-23T07:48:29;7.80;;;7.10;;
7003;SDS011;3542;48.812;9.146;2022-07-23T07:50:55;8.50;;;6.37;;
7003;SDS011;3542;48.812;9.146;2022-07-23T07:53:20;7.30;;;6.70;;
7003;SDS011;3542;48.812;9.146;2022-07-23T07:55:46;9.93;;;7.30;;
7003;SDS011;3542;48.812;9.146;2022-07-23T07:58:11;7.90;;;7.10;;
7003;SDS011;3542;48.812;9.146;2022-07-23T08:00:37;7.60;;;6.83;;
7003;SDS011;3542;48.812;9.146;2022-07-23T08:03:03;8.10;;;7.27;;
7003;SDS011;3542;48.812;9.146;2022-07-23T08:05:28;8.87;;;7.43;;
7003;SDS011;3542;48.812;9.146;2022-07-23T08:07:55;8.47;;;7.77;;
7003;SDS011;3542;48.812;9.146;2022-07-23T08:10:22;6.53;;;6.03;;
7003;SDS011;3542;48.812;9.146;2022-07-23T08:12:49;8.00;;;5.93;;
7003;SDS011;3542;48.812;9.146;2022-07-23T08:15:16;7.83;;;7.03;;
7003;SDS011;3542;48.812;9.146;2022-07-23T08:17:44;9.00;;;7.53;;
7003;SDS011;3542;48.812;9.146;2022-07-23T08:20:12;7.37;;;6.67;;
7003;SDS011;3542;48.812;9.146;2022-07-23T08:22:42;10.03;;;6.30;;
7003;SDS011;3542;48.812;9.146;2022-07-23T08:25:12;7.03;;;6.50;;
7003;SDS011;3542;48.812;9.146;2022-07-23T08:27:39;7.97;;;5.77;;
7003;SDS011;3542;48.812;9.146;2022-07-23T08:30:05;9.90;;;6.63;;
7003;SDS011;3542;48.812;9.146;2022-07-23T08:32:31;7.67;;;6.13;;
7003;SDS011;3542;48.812;9.146;2022-07-23T08:34:56;7.03;;;6.43;;
7003;SDS011;3542;48.812;9.146;2022-07-23T08:37:22;7.10;;;6.60;;
7003;SDS011;3542;48.812;9.146;2022-07-23T08:39:47;6.47;;;5.97;;
7003;SDS011;3542;48.812;9.146;2022-07-23T08:42:13;6.03;;;5.63;;
7003;SDS011;3542;48.812;9.146;2022-07-23T08:44:40;6.13;;;5.53;;
7003;SDS011;3542;48.812;9.146;2022-07-23T08:47:10;11.60;;;5.60;;
7003;SDS011;3542;48.812;9.146;2022-07-23T08:49:36;5.83;;;5.43;;
7003;SDS011;3542;48.812;9.146;2022-07-23T08:52:03;5.57;;;5.17;;
7003;SDS011;3542;48.812;9.146;2022-07-23T08:54:29;7.10;;;6.00;;
7003;SDS011;3542;48.812;9.146;2022-07-23T08:56:55;6.80;;;6.20;;
7003;SDS011;3542;48.812;9.146;2022-07-23T08:59:20;6.30;;;5.80;;
7003;SDS011;3542;48.812;9.146;2022-07-23T09:01:46;6.97;;;6.27;;
7003;SDS011;3542;48.812;9.146;2022-07-23T09:04:11;6.23;;;5.63;;
7003;SDS011;3542;48.812;9.146;2022-07-23T09:06:38;5.60;;;5.20;;
7003;SDS011;3542;48.812;9.146;2022-07-23T09:09:16;8.43;;;5.53;;
7003;SDS011;3542;48.812;9.146;2022-07-23T09:11:46;7.10;;;5.43;;
7003;SDS011;3542;48.812;9.146;2022-07-23T09:14:12;5.60;;;5.20;;
7003;SDS011;3542;48.812;9.146;2022-07-23T09:16:38;7.90;;;5.60;;
7003;SDS011;3542;48.812;9.146;2022-07-23T09:19:04;6.00;;;5.60;;
7003;SDS011;3542;48.812;9.146;2022-07-23T09:21:32;5.70;;;5.30;;
7003;SDS011;3542;48.812;9.146;2022-07-23T09:23:59;6.70;;;6.17;;
7003;SDS011;3542;48.812;9.146;2022-07-23T09:29:10;6.93;;;5.43;;
7003;SDS011;3542;48.812;9.146;2022-07-23T09:31:50;5.50;;;5.00;;
7003;SDS011;3542;48.812;9.146;2022-07-23T09:34:18;6.67;;;5.50;;
7003;SDS011;3542;48.812;9.146;2022-07-23T09:36:46;5.77;;;5.30;;
7003;SDS011;3542;48.812;9.146;2022-07-23T09:39:13;5.30;;;4.77;;
7003;SDS011;3542;48.812;9.146;2022-07-23T09:41:43;6.60;;;6.10;;
7003;SDS011;3542;48.812;9.146;2022-07-23T09:44:15;5.67;;;5.27;;
7003;SDS011;3542;48.812;9.146;2022-07-23T09:46:43;5.73;;;5.37;;
7003;SDS011;3542;48.812;9.146;2022-07-23T09:49:11;5.37;;;4.97;;
7003;SDS011;3542;48.812;9.146;2022-07-23T09:54:25;5.13;;;4.83;;
7003;SDS011;3542;48.812;9.146;2022-07-23T09:56:56;5.37;;;5.03;;
7003;SDS011;3542;48.812;9.146;2022-07-23T09:59:28;6.43;;;4.50;;
7003;SDS011;3542;48.812;9.146;2022-07-23T10:01:56;5.70;;;5.30;;
7003;SDS011;3542;48.812;9.146;2022-07-23T10:04:24;5.23;;;4.90;;
7003;SDS011;3542;48.812;9.146;2022-07-23T10:06:52;5.60;;;5.10;;
7003;SDS011;3542;48.812;9.146;2022-07-23T10:09:22;6.23;;;4.87;;
7003;SDS011;3542;48.812;9.146;2022-07-23T10:11:49;5.30;;;5.00;;
7003;SDS011;3542;48.812;9.146;2022-07-23T10:14:16;4.17;;;3.97;;
7003;SDS011;3542;48.812;9.146;2022-07-23T10:16:43;5.50;;;5.00;;
7003;SDS011;3542;48.812;9.146;2022-07-23T10:19:09;4.57;;;4.17;;
7003;SDS011;3542;48.812;9.146;2022-07-23T10:21:48;5.07;;;4.67;;
7003;SDS011;3542;48.812;9.146;2022-07-23T10:38:33;6.53;;;6.03;;
7003;SDS011;3542;48.812;9.146;2022-07-23T10:41:12;5.47;;;5.03;;
7003;SDS011;3542;48.812;9.146;2022-07-23T10:43:38;6.60;;;6.03;;
7003;SDS011;3542;48.812;9.146;2022-07-23T10:54:49;10.77;;;8.20;;
7003;SDS011;3542;48.812;9.146;2022-07-23T10:57:16;7.80;;;6.90;;
7003;SDS011;3542;48.812;9.146;2022-07-23T11:02:30;7.30;;;6.53;;
7003;SDS011;3542;48.812;9.146;2022-07-23T11:05:00;4.70;;;4.30;;
7003;SDS011;3542;48.812;9.146;2022-07-23T11:07:28;6.13;;;5.53;;
7003;SDS011;3542;48.812;9.146;2022-07-23T11:09:54;6.10;;;5.03;;
7003;SDS011;3542;48.812;9.146;2022-07-23T11:25:07;5.73;;;5.20;;
7003;SDS011;3542;48.812;9.146;2022-07-23T11:27:40;5.50;;;5.00;;
7003;SDS011;3542;48.812;9.146;2022-07-23T11:30:08;8.40;;;5.60;;
7003;SDS011;3542;48.812;9.146;2022-07-23T11:32:36;6.43;;;5.37;;
7003;SDS011;3542;48.812;9.146;2022-07-23T11:35:25;6.27;;;5.77;;
7003;SDS011;3542;48.812;9.146;2022-07-23T11:37:53;7.00;;;6.30;;
7003;SDS011;3542;48.812;9.146;2022-07-23T11:40:28;5.73;;;5.30;;
7003;SDS011;3542;48.812;9.146;2022-07-23T11:42:58;6.00;;;5.50;;
7003;SDS011;3542;48.812;9.146;2022-07-23T11:45:33;6.93;;;6.43;;
7003;SDS011;3542;48.812;9.146;2022-07-23T11:48:04;6.93;;;6.27;;
7003;SDS011;3542;48.812;9.146;2022-07-23T11:50:32;5.93;;;5.53;;
7003;SDS011;3542;48.812;9.146;2022-07-23T11:53:04;6.70;;;6.20;;
7003;SDS011;3542;48.812;9.146;2022-07-23T11:55:30;5.77;;;5.37;;
7003;SDS011;3542;48.812;9.146;2022-07-23T11:57:58;6.43;;;5.93;;
7003;SDS011;3542;48.812;9.146;2022-07-23T12:00:25;7.90;;;6.67;;
7003;SDS011;3542;48.812;9.146;2022-07-23T12:02:55;6.23;;;5.73;;
7003;SDS011;3542;48.812;9.146;2022-07-23T12:05:25;6.80;;;6.20;;
7003;SDS011;3542;48.812;9.146;2022-07-23T12:07:54;7.70;;;5.87;;
7003;SDS011;3542;48.812;9.146;2022-07-23T12:11:03;6.60;;;5.93;;
7003;SDS011;3542;48.812;9.146;2022-07-23T12:13:31;10.13;;;5.50;;
7003;SDS011;3542;48.812;9.146;2022-07-23T12:15:57;6.53;;;5.90;;
7003;SDS011;3542;48.812;9.146;2022-07-23T12:18:24;6.80;;;6.10;;
7003;SDS011;3542;48.812;9.146;2022-07-23T12:20:52;7.17;;;6.50;;
7003;SDS011;3542;48.812;9.146;2022-07-23T12:23:21;21.30;;;7.63;;
7003;SDS011;3542;48.812;9.146;2022-07-23T12:25:49;30.83;;;6.73;;
7003;SDS011;3542;48.812;9.146;2022-07-23T12:28:17;11.10;;;6.67;;
7003;SDS011;3542;48.812;9.146;2022-07-23T12:30:51;6.55;;;5.95;;
7003;SDS011;3542;48.812;9.146;2022-07-23T12:33:22;6.77;;;6.20;;
7003;SDS011;3542;48.812;9.146;2022-07-23T12:35:53;6.90;;;6.27;;
7003;SDS011;3542;48.812;9.146;2022-07-23T12:38:21;7.50;;;6.90;;
7003;SDS011;3542;48.812;9.146;2022-07-23T12:40:51;6.77;;;6.27;;
7003;SDS011;3542;48.812;9.146;2022-07-23T12:43:32;6.93;;;6.33;;
7003;SDS011;3542;48.812;9.146;2022-07-23T12:51:20;7.57;;;6.77;;
7003;SDS011;3542;48.812;9.146;2022-07-23T12:56:15;7.90;;;7.10;;
7003;SDS011;3542;48.812;9.146;2022-07-23T12:58:50;8.70;;;7.10;;
7003;SDS011;3542;48.812;9.146;2022-07-23T13:01:28;7.30;;;6.67;;
7003;SDS011;3542;48.812;9.146;2022-07-23T13:06:26;7.20;;;6.00;;
7003;SDS011;3542;48.812;9.146;2022-07-23T13:08:58;6.60;;;6.00;;
7003;SDS011;3542;48.812;9.146;2022-07-23T13:11:24;7.67;;;6.50;;
7003;SDS011;3542;48.812;9.146;2022-07-23T13:13:50;7.87;;;6.63;;
7003;SDS011;3542;48.812;9.146;2022-07-23T13:16:16;6.80;;;6.20;;
7003;SDS011;3542;48.812;9.146;2022-07-23T13:18:41;6.50;;;6.00;;
7003;SDS011;3542;48.812;9.146;2022-07-23T13:21:07;6.37;;;5.83;;
7003;SDS011;3542;48.812;9.146;2022-07-23T13:23:33;7.37;;;6.70;;
7003;SDS011;3542;48.812;9.146;2022-07-23T13:25:59;7.37;;;6.77;;
7003;SDS011;3542;48.812;9.146;2022-07-23T13:28:24;6.13;;;5.63;;
7003;SDS011;3542;48.812;9.146;2022-07-23T13:30:50;7.97;;;7.47;;
7003;SDS011;3542;48.812;9.146;2022-07-23T13:33:20;9.13;;;7.67;;
7003;SDS011;3542;48.812;9.146;2022-07-23T13:35:47;7.33;;;6.73;;
7003;SDS011;3542;48.812;9.146;2022-07-23T13:38:14;7.57;;;7.00;;
7003;SDS011;3542;48.812;9.146;2022-07-23T13:40:40;7.30;;;6.60;;
7003;SDS011;3542;48.812;9.146;2022-07-23T13:43:08;8.20;;;7.50;;
7003;SDS011;3542;48.812;9.146;2022-07-23T13:45:36;8.13;;;7.43;;
7003;SDS011;3542;48.812;9.146;2022-07-23T13:48:03;7.80;;;7.10;;
7003;SDS011;3542;48.812;9.146;2022-07-23T13:50:29;8.23;;;7.63;;
7003;SDS011;3542;48.812;9.146;2022-07-23T13:52:54;12.57;;;7.77;;
7003;SDS011;3542;48.812;9.146;2022-07-23T13:55:20;8.70;;;8.00;;
7003;SDS011;3542;48.812;9.146;2022-07-23T13:57:46;9.03;;;7.20;;
7003;SDS011;3542;48.812;9.146;2022-07-23T14:00:12;8.50;;;7.70;;
7003;SDS011;3542;48.812;9.146;2022-07-23T14:02:38;7.23;;;6.70;;
7003;SDS011;3542;48.812;9.146;2022-07-23T14:05:05;7.33;;;6.73;;
7003;SDS011;3542;48.812;9.146;2022-07-23T14:07:34;7.77;;;7.07;;
7003;SDS011;3542;48.812;9.146;2022-07-23T14:10:00;7.53;;;6.80;;
7003;SDS011;3542;48.812;9.146;2022-07-23T14:12:26;8.27;;;7.67;;
7003;SDS011;3542;48.812;9.146;2022-07-23T14:14:52;8.10;;;7.40;;
7003;SDS011;3542;48.812;9.146;2022-07-23T14:17:17;7.30;;;6.80;;
7003;SDS011;3542;48.812;9.146;2022-07-23T14:19:43;7.77;;;7.07;;
7003;SDS011;3542;48.812;9.146;2022-07-23T14:22:09;7.30;;;6.70;;
7003;SDS011;3542;48.812;9.146;2022-07-23T14:24:34;9.23;;;6.67;;
7003;SDS011;3542;48.812;9.146;2022-07-23T14:27:00;10.00;;;8.17;;
7003;SDS011;3542;48.812;9.146;2022-07-23T14:29:28;6.57;;;6.07;;
7003;SDS011;3542;48.812;9.146;2022-07-23T14:31:53;6.40;;;5.90;;
7003;SDS011;3542;48.812;9.146;2022-07-23T14:34:19;7.50;;;6.73;;
7003;SDS011;3542;48.812;9.146;2022-07-23T14:36:45;7.50;;;6.90;;
7003;SDS011;3542;48.812;9.146;2022-07-23T14:39:10;7.90;;;7.10;;
7003;SDS011;3542;48.812;9.146;2022-07-23T14:41:37;7.00;;;6.37;;
7003;SDS011;3542;48.812;9.146;2022-07-23T14:44:03;7.90;;;7.20;;
7003;SDS011;3542;48.812;9.146;2022-07-23T14:46:29;7.20;;;6.60;;
7003;SDS011;3542;48.812;9.146;2022-07-23T14:48:55;6.80;;;6.23;;
7003;SDS011;3542;48.812;9.146;2022-07-23T14:51:20;9.07;;;6.83;;
7003;SDS011;3542;48.812;9.146;2022-07-23T14:53:46;7.17;;;6.63;;
7003;SDS011;3542;48.812;9.146;2022-07-23T14:56:12;6.50;;;6.00;;
7003;SDS011;3542;48.812;9.146;2022-07-23T14:58:39;6.90;;;6.30;;
7003;SDS011;3542;48.812;9.146;2022-07-23T15:01:05;7.60;;;6.60;;
7003;SDS011;3542;48.812;9.146;2022-07-23T15:03:31;7.37;;;6.83;;
7003;SDS011;3542;48.812;9.146;2022-07-23T15:05:58;7.50;;;6.70;;
7003;SDS011;3542;48.812;9.146;2022-07-23T15:08:24;7.93;;;7.20;;
7003;SDS011;3542;48.812;9.146;2022-07-23T15:10:50;7.87;;;7.27;;
7003;SDS011;3542;48.812;9.146;2022-07-23T15:13:16;7.97;;;7.27;;
7003;SDS011;3542;48.812;9.146;2022-07-23T15:15:42;7.87;;;7.27;;
7003;SDS011;3542;48.812;9.146;2022-07-23T15:18:08;7.27;;;6.77;;
7003;SDS011;3542;48.812;9.146;2022-07-23T15:20:33;9.93;;;7.87;;
7003;SDS011;3542;48.812;9.146;2022-07-23T15:23:00;8.30;;;7.60;;
7003;SDS011;3542;48.812;9.146;2022-07-23T15:25:25;8.17;;;7.40;;
7003;SDS011;3542;48.812;9.146;2022-07-23T15:27:51;7.60;;;6.90;;
7003;SDS011;3542;48.812;9.146;2022-07-23T15:30:17;8.43;;;7.40;;
7003;SDS011;3542;48.812;9.146;2022-07-23T15:32:43;6.83;;;6.43;;
7003;SDS011;3542;48.812;9.146;2022-07-23T15:35:09;7.73;;;7.13;;
7003;SDS011;3542;48.812;9.146;2022-07-23T15:37:34;8.57;;;7.77;;
7003;SDS011;3542;48.812;9.146;2022-07-23T15:40:01;8.93;;;8.03;;
7003;SDS011;3542;48.812;9.146;2022-07-23T15:42:30;8.37;;;7.23;;
7003;SDS011;3542;48.812;9.146;2022-07-23T15:44:56;10.67;;;7.30;;
7003;SDS011;3542;48.812;9.146;2022-07-23T15:47:22;8.60;;;7.70;;
7003;SDS011;3542;48.812;9.146;2022-07-23T15:49:48;7.90;;;7.20;;
7003;SDS011;3542;48.812;9.146;2022-07-23T15:52:14;12.10;;;8.80;;
7003;SDS011;3542;48.812;9.146;2022-07-23T15:54:39;9.10;;;7.60;;
7003;SDS011;3542;48.812;9.146;2022-07-23T15:57:06;9.37;;;8.37;;
7003;SDS011;3542;48.812;9.146;2022-07-23T15:59:40;12.40;;;6.90;;
7003;SDS011;3542;48.812;9.146;2022-07-23T16:02:06;7.73;;;7.17;;
7003;SDS011;3542;48.812;9.146;2022-07-23T16:04:32;7.73;;;7.03;;
7003;SDS011;3542;48.812;9.146;2022-07-23T16:06:58;8.53;;;7.47;;
7003;SDS011;3542;48.812;9.146;2022-07-23T16:09:24;8.37;;;7.57;;
7003;SDS011;3542;48.812;9.146;2022-07-23T16:11:50;8.53;;;7.83;;
7003;SDS011;3542;48.812;9.146;2022-07-23T16:14:16;8.20;;;7.60;;
7003;SDS011;3542;48.812;9.146;2022-07-23T16:16:42;8.73;;;7.90;;
7003;SDS011;3542;48.812;9.146;2022-07-23T16:19:08;8.90;;;8.20;;
7003;SDS011;3542;48.812;9.146;2022-07-23T16:21:34;8.93;;;8.17;;
7003;SDS011;3542;48.812;9.146;2022-07-23T16:23:59;8.30;;;7.60;;
7003;SDS011;3542;48.812;9.146;2022-07-23T16:26:25;9.97;;;8.90;;
7003;SDS011;3542;48.812;9.146;2022-07-23T16:28:51;9.37;;;8.57;;
7003;SDS011;3542;48.812;9.146;2022-07-23T16:31:17;8.73;;;8.03;;
7003;SDS011;3542;48.812;9.146;2022-07-23T16:33:42;8.60;;;8.00;;
7003;SDS011;3542;48.812;9.146;2022-07-23T16:36:08;10.43;;;8.50;;
7003;SDS011;3542;48.812;9.146;2022-07-23T16:38:34;10.03;;;8.87;;
7003;SDS011;3542;48.812;9.146;2022-07-23T16:41:01;10.50;;;9.57;;
7003;SDS011;3542;48.812;9.146;2022-07-23T16:43:27;9.47;;;7.70;;
7003;SDS011;3542;48.812;9.146;2022-07-23T16:45:52;9.10;;;8.20;;
7003;SDS011;3542;48.812;9.146;2022-07-23T16:48:18;9.17;;;8.20;;
7003;SDS011;3542;48.812;9.146;2022-07-23T16:50:44;10.53;;;9.17;;
7003;SDS011;3542;48.812;9.146;2022-07-23T16:53:10;9.03;;;8.23;;
7003;SDS011;3542;48.812;9.146;2022-07-23T16:55:36;10.13;;;9.20;;
7003;SDS011;3542;48.812;9.146;2022-07-23T16:58:01;10.60;;;8.33;;
7003;SDS011;3542;48.812;9.146;2022-07-23T17:00:27;9.97;;;9.00;;
7003;SDS011;3542;48.812;9.146;2022-07-23T17:02:53;12.37;;;8.70;;
7003;SDS011;3542;48.812;9.146;2022-07-23T17:05:18;11.77;;;9.90;;
7003;SDS011;3542;48.812;9.146;2022-07-23T17:07:44;9.57;;;8.60;;
7003;SDS011;3542;48.812;9.146;2022-07-23T17:10:09;10.97;;;9.73;;
7003;SDS011;3542;48.812;9.146;2022-07-23T17:12:35;9.23;;;8.53;;
7003;SDS011;3542;48.812;9.146;2022-07-23T17:15:01;10.50;;;9.60;;
7003;SDS011;3542;48.812;9.146;2022-07-23T17:17:27;10.07;;;8.50;;
7003;SDS011;3542;48.812;9.146;2022-07-23T17:19:53;9.98;;;9.00;;
7003;SDS011;3542;48.812;9.146;2022-07-23T17:22:18;9.60;;;8.70;;
7003;SDS011;3542;48.812;9.146;2022-07-23T17:24:44;8.87;;;8.20;;
7003;SDS011;3542;48.812;9.146;2022-07-23T17:27:09;9.10;;;8.20;;
7003;SDS011;3542;48.812;9.146;2022-07-23T17:29:35;9.47;;;8.70;;
7003;SDS011;3542;48.812;9.146;2022-07-23T17:32:00;11.80;;;10.70;;
7003;SDS011;3542;48.812;9.146;2022-07-23T17:34:26;11.23;;;10.23;;
7003;SDS011;3542;48.812;9.146;2022-07-23T17:36:53;11.00;;;9.87;;